KLGA/LGA METAR and TAF weather

Enter ICAO airport designator
Station Type Date Time Source
KLGA METAR 2019/07/17 11:51 UTC NOAA

KLGA 171151Z 19007KT 10SM BKN120 BKN230 28/22 A2996 RMK AO2 SLP144 T02830222 10289 20278 50001


Station Type Date Time Source
KLGA Decoded METAR 2019/07/17 11:51 UTC NOAA

NEW YORK LA GUARDIA AIRPORT , NY, United States (KLGA) 40-47N 73-53W 11M
Jul 17, 2019 - 07:51 AM EDT / 2019.07.17 1151 UTC
Wind: from the S (190 degrees) at 8 MPH (7 KT):0
Visibility: 10 mile(s):0
Sky conditions: mostly cloudy
Temperature: 82.9 F (28.3 C)
Dew Point: 72.0 F (22.2 C)
Relative Humidity: 69%
Pressure (altimeter): 29.96 in. Hg (1014 hPa)
Pressure tendency: 0.00 inches (0.1 hPa) higher than three hours ago
ob: KLGA 171151Z 19007KT 10SM BKN120 BKN230 28/22 A2996 RMK AO2 SLP144 T02830222 10289 20278 50001
cycle: 12

Station Type Date Time Source
KLGA TAF 2019/07/17 12:39 UTC NOAA

TAF KLGA 171137Z 1712/1818 21008KT P6SM FEW060 BKN120
FM171600 21011G16KT P6SM SCT060 BKN120
FM171900 19013G19KT P6SM VCSH SCT050 BKN100
FM172200 22011KT 6SM -SHRA SCT030 OVC040
TEMPO 1723/1803 24012G28KT 2SM +TSRA BKN025CB
FM180300 29009KT 6SM -SHRA BKN030 OVC040
FM180700 06006KT 5SM -SHRA BR OVC025
FM181000 08008KT 4SM -SHRA OVC015

Example: see airport list